Aviation Digital Data Service (ADDS)

Output produced by METARs form (1623 UTC 02 August 2015)
found at http://aviationweather.gov/adds/metars/
 
KLAS 021435Z 0215/0312 VRB06KT P6SM FEW120 BKN220 
     FM021800 06007KT P6SM SCT120 
     FM022100 20010KT P6SM FEW120